createdAt,value
2023-02-03T00:01:05.565Z,81.62
2023-02-03T00:03:34.074Z,81.95
2023-02-03T00:06:05.377Z,82.21
2023-02-03T00:08:34.409Z,82.33
2023-02-03T00:11:03.425Z,82.53
2023-02-03T00:13:33.146Z,82.60
2023-02-03T00:16:02.676Z,82.63
2023-02-03T00:18:30.794Z,82.74
2023-02-03T00:21:04.254Z,82.79
2023-02-03T00:23:37.726Z,82.85
2023-02-03T00:26:13.167Z,83.25
2023-02-03T00:28:45.385Z,83.32
2023-02-03T00:31:17.927Z,82.83
2023-02-03T00:33:48.163Z,83.57
2023-02-03T00:36:18.460Z,83.57
2023-02-03T00:38:50.061Z,83.96
2023-02-03T00:41:26.960Z,85.00
2023-02-03T00:44:03.376Z,85.47
2023-02-03T00:46:37.162Z,85.78
2023-02-03T00:49:08.607Z,86.21
2023-02-03T00:51:45.572Z,87.10
2023-02-03T00:54:18.609Z,87.84
2023-02-03T00:56:52.461Z,88.38
2023-02-03T00:59:28.369Z,89.02
2023-02-03T01:02:05.271Z,89.52
2023-02-03T01:04:41.376Z,90.15
2023-02-03T01:07:17.356Z,90.34
2023-02-03T01:09:54.682Z,90.69
2023-02-03T01:12:34.233Z,90.99
2023-02-03T01:15:11.293Z,91.40
2023-02-03T01:17:48.452Z,91.60
2023-02-03T01:20:25.825Z,91.47
2023-02-03T01:23:05.612Z,92.28
2023-02-03T01:25:41.965Z,92.22
2023-02-03T01:28:20.257Z,92.33
2023-02-03T01:30:57.767Z,92.93
2023-02-03T01:33:30.771Z,92.58
2023-02-03T01:36:09.171Z,92.73
2023-02-03T01:38:42.311Z,92.64
2023-02-03T01:41:18.490Z,92.91
2023-02-03T01:43:54.606Z,93.12
2023-02-03T01:46:31.934Z,92.89
2023-02-03T01:49:05.435Z,93.17
2023-02-03T01:51:33.409Z,92.81
2023-02-03T01:54:02.028Z,93.27
2023-02-03T01:56:33.973Z,93.38
2023-02-03T01:59:04.288Z,93.68
2023-02-03T02:01:36.911Z,93.69
2023-02-03T02:04:06.028Z,93.28
2023-02-03T02:06:34.991Z,93.74
2023-02-03T02:09:03.289Z,93.25
2023-02-03T02:11:31.372Z,92.93
2023-02-03T02:14:01.997Z,93.53
2023-02-03T02:16:40.251Z,94.02
2023-02-03T02:19:28.268Z,93.45
2023-02-03T02:22:04.769Z,94.03
2023-02-03T02:24:47.843Z,93.92
2023-02-03T02:27:32.521Z,94.16
2023-02-03T02:30:27.252Z,93.99
2023-02-03T02:33:02.969Z,93.71
2023-02-03T02:35:40.620Z,94.65
2023-02-03T02:38:17.610Z,94.52
2023-02-03T02:40:52.888Z,94.49
2023-02-03T02:43:24.506Z,94.28
2023-02-03T02:45:55.769Z,93.73
2023-02-03T02:48:31.260Z,93.56
2023-02-03T02:51:00.477Z,93.96
2023-02-03T02:53:33.930Z,94.22
2023-02-03T02:56:04.629Z,94.22
2023-02-03T02:58:35.365Z,94.25
2023-02-03T03:01:03.903Z,94.75
2023-02-03T03:03:33.693Z,94.32
2023-02-03T03:06:04.003Z,94.20
2023-02-03T03:08:40.404Z,94.77
2023-02-03T03:11:08.688Z,94.24
2023-02-03T03:13:40.368Z,94.35
2023-02-03T03:16:10.919Z,94.63
2023-02-03T03:18:45.263Z,94.66
2023-02-03T03:21:17.722Z,94.72
2023-02-03T03:23:48.426Z,94.47
2023-02-03T03:26:19.413Z,94.78
2023-02-03T03:28:49.719Z,94.83
2023-02-03T03:31:18.504Z,94.97
2023-02-03T03:33:48.957Z,95.30
2023-02-03T03:36:24.291Z,95.30
2023-02-03T03:38:56.765Z,95.07
2023-02-03T03:41:30.141Z,94.68
2023-02-03T03:44:01.499Z,95.31
2023-02-03T03:46:31.385Z,95.15
2023-02-03T03:49:05.233Z,95.27
2023-02-03T03:51:36.184Z,94.96
2023-02-03T03:54:06.922Z,94.55
2023-02-03T03:56:37.992Z,94.74
2023-02-03T03:59:06.576Z,95.21
2023-02-03T04:01:34.614Z,95.45
2023-02-03T04:04:08.469Z,94.81
2023-02-03T04:06:37.988Z,95.74
2023-02-03T04:09:06.023Z,95.65
2023-02-03T04:11:51.792Z,95.57
2023-02-03T04:14:19.809Z,95.97
2023-02-03T04:16:48.019Z,96.05
2023-02-03T04:19:17.316Z,96.26
2023-02-03T04:21:45.787Z,95.98
2023-02-03T04:24:14.281Z,95.93
2023-02-03T04:26:42.389Z,95.89
2023-02-03T04:29:10.960Z,95.55
2023-02-03T04:31:40.364Z,95.73
2023-02-03T04:34:10.176Z,95.82
2023-02-03T04:36:39.597Z,96.16
2023-02-03T04:39:07.463Z,95.78
2023-02-03T04:41:35.599Z,95.78
2023-02-03T04:44:04.166Z,95.95
2023-02-03T04:46:32.189Z,96.17
2023-02-03T04:49:02.442Z,96.19
2023-02-03T04:51:30.584Z,96.02
2023-02-03T04:53:59.957Z,96.43
2023-02-03T04:56:28.022Z,96.00
2023-02-03T04:58:55.945Z,96.04
2023-02-03T05:01:25.719Z,96.03
2023-02-03T05:03:53.796Z,96.37
2023-02-03T05:06:26.155Z,96.60
2023-02-03T05:08:54.192Z,96.51
2023-02-03T05:11:24.393Z,96.61
2023-02-03T05:13:52.496Z,96.59
2023-02-03T05:16:21.734Z,96.65
2023-02-03T05:18:49.980Z,96.47
2023-02-03T05:21:19.948Z,96.37
2023-02-03T05:23:48.238Z,96.53
2023-02-03T05:26:16.241Z,96.57
2023-02-03T05:28:45.957Z,96.51
2023-02-03T05:31:13.917Z,96.47
2023-02-03T05:33:42.320Z,96.36
2023-02-03T05:36:11.309Z,96.47
2023-02-03T05:38:39.320Z,96.43
2023-02-03T05:41:24.681Z,96.36
2023-02-03T05:43:54.999Z,96.21
2023-02-03T05:46:23.184Z,96.38
2023-02-03T05:48:51.154Z,96.22
2023-02-03T05:51:19.202Z,96.31
2023-02-03T05:53:47.665Z,96.28
2023-02-03T05:56:15.723Z,96.13
2023-02-03T05:58:45.330Z,96.16
2023-02-03T06:01:14.936Z,96.03
2023-02-03T06:03:45.822Z,95.31
2023-02-03T06:06:14.491Z,95.63
2023-02-03T06:08:43.193Z,95.44
2023-02-03T06:11:12.204Z,95.33
2023-02-03T06:13:41.100Z,95.49
2023-02-03T06:16:10.040Z,95.27
2023-02-03T06:18:39.454Z,95.76
2023-02-03T06:21:07.558Z,95.49
2023-02-03T06:23:35.383Z,95.62
2023-02-03T06:26:05.840Z,95.58
2023-02-03T06:28:34.701Z,95.53
2023-02-03T06:31:02.704Z,95.61
2023-02-03T06:33:30.978Z,95.78
2023-02-03T06:36:02.469Z,95.61
2023-02-03T06:38:32.115Z,95.41
2023-02-03T06:40:59.970Z,95.40
2023-02-03T06:43:27.982Z,95.42
2023-02-03T06:45:56.350Z,95.65
2023-02-03T06:48:24.611Z,95.51
2023-02-03T06:50:53.113Z,95.48
2023-02-03T06:53:22.909Z,95.31
2023-02-03T06:55:50.762Z,95.14
2023-02-03T06:58:18.727Z,95.24
2023-02-03T07:00:46.682Z,95.18
2023-02-03T07:03:14.905Z,94.90
2023-02-03T07:05:45.273Z,94.93
2023-02-03T07:08:13.300Z,95.14
2023-02-03T07:10:43.874Z,94.88
2023-02-03T07:13:12.014Z,94.79
2023-02-03T07:15:40.029Z,94.54
2023-02-03T07:18:07.897Z,94.51
2023-02-03T07:20:35.914Z,94.72
2023-02-03T07:23:04.453Z,94.99
2023-02-03T07:25:33.048Z,95.37
2023-02-03T07:28:02.990Z,95.34
2023-02-03T07:30:31.365Z,94.94
2023-02-03T07:33:00.454Z,94.86
2023-02-03T07:35:28.495Z,94.92
2023-02-03T07:37:56.847Z,95.05
2023-02-03T07:40:27.550Z,95.24
2023-02-03T07:42:56.513Z,94.96
2023-02-03T07:45:26.604Z,95.22
2023-02-03T07:47:56.377Z,95.01
2023-02-03T07:50:25.437Z,94.99
2023-02-03T07:52:54.703Z,94.70
2023-02-03T07:55:22.804Z,94.90
2023-02-03T07:57:50.809Z,94.55
2023-02-03T08:00:19.802Z,94.67
2023-02-03T08:02:49.130Z,94.42
2023-02-03T08:05:18.361Z,94.29
2023-02-03T08:07:47.752Z,94.79
2023-02-03T08:10:17.945Z,94.83
2023-02-03T08:12:46.852Z,94.82
2023-02-03T08:15:21.007Z,94.83
2023-02-03T08:17:51.476Z,94.88
2023-02-03T08:20:19.861Z,94.50
2023-02-03T08:22:47.858Z,94.80
2023-02-03T08:25:15.783Z,94.73
2023-02-03T08:27:44.091Z,94.95
2023-02-03T08:30:14.863Z,94.79
2023-02-03T08:32:44.606Z,95.18
2023-02-03T08:35:14.252Z,94.95
2023-02-03T08:37:42.646Z,95.15
2023-02-03T08:40:12.793Z,94.77
2023-02-03T08:42:40.842Z,94.98
2023-02-03T08:45:10.016Z,95.17
2023-02-03T08:47:38.106Z,95.14
2023-02-03T08:50:08.168Z,94.59
2023-02-03T08:52:40.273Z,94.95
2023-02-03T08:55:08.896Z,95.09
2023-02-03T08:57:37.476Z,95.47
2023-02-03T09:00:06.521Z,95.44
2023-02-03T09:02:34.804Z,95.53
2023-02-03T09:05:03.091Z,95.35
2023-02-03T09:07:31.189Z,95.45
2023-02-03T09:10:00.808Z,95.69
2023-02-03T09:12:28.850Z,95.56
2023-02-03T09:14:57.512Z,95.37
2023-02-03T09:17:25.413Z,95.15
2023-02-03T09:19:53.703Z,95.69
2023-02-03T09:22:22.150Z,94.91
2023-02-03T09:24:51.385Z,94.69
2023-02-03T09:27:21.253Z,94.53
2023-02-03T09:29:49.460Z,94.60
2023-02-03T09:32:17.700Z,95.27
2023-02-03T09:34:46.041Z,95.42
2023-02-03T09:37:14.096Z,94.98
2023-02-03T09:39:42.395Z,95.13
2023-02-03T09:42:38.423Z,95.27
2023-02-03T09:45:13.101Z,95.49
2023-02-03T09:47:42.799Z,95.41
2023-02-03T09:50:14.835Z,95.43
2023-02-03T09:52:44.244Z,95.81
2023-02-03T09:55:22.780Z,95.62
2023-02-03T09:57:57.367Z,95.18
2023-02-03T10:00:29.628Z,95.28
2023-02-03T10:03:01.471Z,94.27
